Interlachen, Florida
Current Conditions -  °F | °C
As of 11:53 AM on Thursday 23 Oct 2014 (Local Time) from KGNV Reporting Station
Clear Clear  
Wind Chill: 72°   Ceiling: Unl
Heat Index: 72°   Visibility: 10mi
Dew Point: 52°   Wind: 13mph
Humidity: 49%   Direction: 50°NE
Pressure: 30.07"   Gusts: NA
Location:  29.62°N, 81.9°W
Report Text: KGNV 231553Z 05011KT 10SM CLR 22/11 A3007 RMK AO2 SLP180 T02220111
Loading
Personal Weather Stations






























Interactive Weather Map
Tropical Storm Tracking
New forecast layout! Learn more

10-Day Weather Forecast

Advertisements
Track Severe Weather on mobile